Terminal Aerodrome Forecast
Issued by NWS

Current Version | Previous Version | Text Only | Print | Product List | Glossary On
Versions: 1 2 3 4 5 6 7 8 9 10 11 12 13 14 15
413
FTUS46 KPDT 250520
TAFRDM
TAF
KRDM 250520Z 2506/2606 31006KT P6SM SCT120 BKN200
     FM250900 VRB04KT P6SM FEW130 SCT250
     FM252100 35008KT P6SM SCT120 BKN250
     FM260300 33008KT P6SM FEW130 SCT250=

USA.gov is the U.S. government's official web portal to all federal, state and local government web resources and services.